sensor_id;sensor_type;location;lat;lon;timestamp;temperature;humidity
19363;DHT22;9817;50.80926400;5.16316200;2023-04-23T00:01:57;11.40;99.90
19363;DHT22;9817;50.80926400;5.16316200;2023-04-23T00:04:24;11.40;99.90
19363;DHT22;9817;50.80926400;5.16316200;2023-04-23T00:06:51;11.30;99.90
19363;DHT22;9817;50.80926400;5.16316200;2023-04-23T00:09:17;11.30;99.90
19363;DHT22;9817;50.80926400;5.16316200;2023-04-23T00:11:43;11.20;99.90
19363;DHT22;9817;50.80926400;5.16316200;2023-04-23T00:14:10;11.30;99.90
19363;DHT22;9817;50.80926400;5.16316200;2023-04-23T00:16:37;11.40;99.90
19363;DHT22;9817;50.80926400;5.16316200;2023-04-23T00:19:03;11.40;99.90
19363;DHT22;9817;50.80926400;5.16316200;2023-04-23T00:21:29;11.50;99.90
19363;DHT22;9817;50.80926400;5.16316200;2023-04-23T00:23:54;11.50;99.90
19363;DHT22;9817;50.80926400;5.16316200;2023-04-23T00:26:20;11.50;99.90
19363;DHT22;9817;50.80926400;5.16316200;2023-04-23T00:28:46;11.40;99.90
19363;DHT22;9817;50.80926400;5.16316200;2023-04-23T00:31:11;11.40;99.90
19363;DHT22;9817;50.80926400;5.16316200;2023-04-23T00:33:37;11.30;99.90
19363;DHT22;9817;50.80926400;5.16316200;2023-04-23T00:36:03;11.40;99.90
19363;DHT22;9817;50.80926400;5.16316200;2023-04-23T00:38:28;11.40;99.90
19363;DHT22;9817;50.80926400;5.16316200;2023-04-23T00:40:54;11.40;99.90
19363;DHT22;9817;50.80926400;5.16316200;2023-04-23T00:43:20;11.30;99.90
19363;DHT22;9817;50.80926400;5.16316200;2023-04-23T00:45:47;11.20;99.90
19363;DHT22;9817;50.80926400;5.16316200;2023-04-23T00:48:12;11.20;99.90
19363;DHT22;9817;50.80926400;5.16316200;2023-04-23T00:50:38;11.10;99.90
19363;DHT22;9817;50.80926400;5.16316200;2023-04-23T00:53:04;11.10;99.90
19363;DHT22;9817;50.80926400;5.16316200;2023-04-23T00:55:30;11.10;99.90
19363;DHT22;9817;50.80926400;5.16316200;2023-04-23T00:57:56;11.00;99.90
19363;DHT22;9817;50.80926400;5.16316200;2023-04-23T01:00:22;10.90;99.90
19363;DHT22;9817;50.80926400;5.16316200;2023-04-23T01:02:48;10.90;99.90
19363;DHT22;9817;50.80926400;5.16316200;2023-04-23T01:05:16;10.80;99.90
19363;DHT22;9817;50.80926400;5.16316200;2023-04-23T01:07:43;10.70;99.90
19363;DHT22;9817;50.80926400;5.16316200;2023-04-23T01:10:10;10.70;99.90
19363;DHT22;9817;50.80926400;5.16316200;2023-04-23T01:12:36;10.60;99.90
19363;DHT22;9817;50.80926400;5.16316200;2023-04-23T01:15:03;10.70;99.90
19363;DHT22;9817;50.80926400;5.16316200;2023-04-23T01:17:28;10.80;99.90
19363;DHT22;9817;50.80926400;5.16316200;2023-04-23T01:19:55;10.80;99.90
19363;DHT22;9817;50.80926400;5.16316200;2023-04-23T01:22:21;11.00;99.90
19363;DHT22;9817;50.80926400;5.16316200;2023-04-23T01:24:47;10.90;99.90
19363;DHT22;9817;50.80926400;5.16316200;2023-04-23T01:27:13;10.90;99.90
19363;DHT22;9817;50.80926400;5.16316200;2023-04-23T01:29:38;10.90;99.90
19363;DHT22;9817;50.80926400;5.16316200;2023-04-23T01:32:06;10.90;99.90
19363;DHT22;9817;50.80926400;5.16316200;2023-04-23T01:34:32;11.20;99.90
19363;DHT22;9817;50.80926400;5.16316200;2023-04-23T01:36:59;11.30;99.90
19363;DHT22;9817;50.80926400;5.16316200;2023-04-23T01:39:25;11.30;99.90
19363;DHT22;9817;50.80926400;5.16316200;2023-04-23T01:41:52;11.50;99.90
19363;DHT22;9817;50.80926400;5.16316200;2023-04-23T01:44:18;11.60;99.90
19363;DHT22;9817;50.80926400;5.16316200;2023-04-23T01:46:43;11.70;99.90
19363;DHT22;9817;50.80926400;5.16316200;2023-04-23T01:49:10;11.80;99.90
19363;DHT22;9817;50.80926400;5.16316200;2023-04-23T01:51:36;11.80;99.90
19363;DHT22;9817;50.80926400;5.16316200;2023-04-23T01:54:01;11.90;99.90
19363;DHT22;9817;50.80926400;5.16316200;2023-04-23T01:56:28;12.10;99.90
19363;DHT22;9817;50.80926400;5.16316200;2023-04-23T01:58:55;12.00;99.90
19363;DHT22;9817;50.80926400;5.16316200;2023-04-23T02:01:20;12.10;99.90
19363;DHT22;9817;50.80926400;5.16316200;2023-04-23T02:03:48;12.00;99.90
19363;DHT22;9817;50.80926400;5.16316200;2023-04-23T02:06:15;12.10;99.90
19363;DHT22;9817;50.80926400;5.16316200;2023-04-23T02:08:41;12.10;99.90
19363;DHT22;9817;50.80926400;5.16316200;2023-04-23T02:11:07;12.20;99.90
19363;DHT22;9817;50.80926400;5.16316200;2023-04-23T02:13:33;12.20;99.90
19363;DHT22;9817;50.80926400;5.16316200;2023-04-23T02:15:59;12.20;99.90
19363;DHT22;9817;50.80926400;5.16316200;2023-04-23T02:18:25;12.30;99.90
19363;DHT22;9817;50.80926400;5.16316200;2023-04-23T02:20:51;12.30;99.90
19363;DHT22;9817;50.80926400;5.16316200;2023-04-23T02:23:16;12.30;99.90
19363;DHT22;9817;50.80926400;5.16316200;2023-04-23T02:25:42;12.30;99.90
19363;DHT22;9817;50.80926400;5.16316200;2023-04-23T02:28:08;12.30;99.90
19363;DHT22;9817;50.80926400;5.16316200;2023-04-23T02:30:37;12.10;99.90
19363;DHT22;9817;50.80926400;5.16316200;2023-04-23T02:33:04;12.10;99.90
19363;DHT22;9817;50.80926400;5.16316200;2023-04-23T02:35:30;12.00;99.90
19363;DHT22;9817;50.80926400;5.16316200;2023-04-23T02:37:56;12.00;99.90
19363;DHT22;9817;50.80926400;5.16316200;2023-04-23T02:40:21;11.90;99.90
19363;DHT22;9817;50.80926400;5.16316200;2023-04-23T02:42:48;11.90;99.90
19363;DHT22;9817;50.80926400;5.16316200;2023-04-23T02:45:14;12.00;99.90
19363;DHT22;9817;50.80926400;5.16316200;2023-04-23T02:47:39;12.00;99.90
19363;DHT22;9817;50.80926400;5.16316200;2023-04-23T02:50:05;12.10;99.90
19363;DHT22;9817;50.80926400;5.16316200;2023-04-23T02:52:32;12.00;99.90
19363;DHT22;9817;50.80926400;5.16316200;2023-04-23T02:54:59;12.00;99.90
19363;DHT22;9817;50.80926400;5.16316200;2023-04-23T02:57:26;12.00;99.90
19363;DHT22;9817;50.80926400;5.16316200;2023-04-23T02:59:52;12.00;99.90
19363;DHT22;9817;50.80926400;5.16316200;2023-04-23T03:02:18;12.20;99.90
19363;DHT22;9817;50.80926400;5.16316200;2023-04-23T03:04:44;12.40;99.90
19363;DHT22;9817;50.80926400;5.16316200;2023-04-23T03:07:09;12.20;99.90
19363;DHT22;9817;50.80926400;5.16316200;2023-04-23T03:09:38;12.30;99.90
19363;DHT22;9817;50.80926400;5.16316200;2023-04-23T03:12:03;12.30;99.90
19363;DHT22;9817;50.80926400;5.16316200;2023-04-23T03:14:29;12.30;99.90
19363;DHT22;9817;50.80926400;5.16316200;2023-04-23T03:16:55;12.30;99.90
19363;DHT22;9817;50.80926400;5.16316200;2023-04-23T03:19:20;12.40;99.90
19363;DHT22;9817;50.80926400;5.16316200;2023-04-23T03:21:46;12.30;99.90
19363;DHT22;9817;50.80926400;5.16316200;2023-04-23T03:24:12;12.40;99.90
19363;DHT22;9817;50.80926400;5.16316200;2023-04-23T03:26:39;12.40;99.90
19363;DHT22;9817;50.80926400;5.16316200;2023-04-23T03:29:05;12.30;99.90
19363;DHT22;9817;50.80926400;5.16316200;2023-04-23T03:31:31;12.30;99.90
19363;DHT22;9817;50.80926400;5.16316200;2023-04-23T03:33:57;12.40;99.90
19363;DHT22;9817;50.80926400;5.16316200;2023-04-23T03:36:22;12.40;99.90
19363;DHT22;9817;50.80926400;5.16316200;2023-04-23T03:38:48;12.40;99.90
19363;DHT22;9817;50.80926400;5.16316200;2023-04-23T03:41:14;12.30;99.90
19363;DHT22;9817;50.80926400;5.16316200;2023-04-23T03:43:39;12.30;99.90
19363;DHT22;9817;50.80926400;5.16316200;2023-04-23T03:46:05;12.20;99.90
19363;DHT22;9817;50.80926400;5.16316200;2023-04-23T03:48:31;12.20;99.90
19363;DHT22;9817;50.80926400;5.16316200;2023-04-23T03:50:57;12.10;99.90
19363;DHT22;9817;50.80926400;5.16316200;2023-04-23T03:53:22;12.10;99.90
19363;DHT22;9817;50.80926400;5.16316200;2023-04-23T03:55:48;12.10;99.90
19363;DHT22;9817;50.80926400;5.16316200;2023-04-23T03:58:14;12.00;99.90
19363;DHT22;9817;50.80926400;5.16316200;2023-04-23T04:00:39;11.90;99.90
19363;DHT22;9817;50.80926400;5.16316200;2023-04-23T04:03:05;11.70;99.90
19363;DHT22;9817;50.80926400;5.16316200;2023-04-23T04:05:33;11.70;99.90
19363;DHT22;9817;50.80926400;5.16316200;2023-04-23T04:07:58;11.80;99.90
19363;DHT22;9817;50.80926400;5.16316200;2023-04-23T04:10:24;11.90;99.90
19363;DHT22;9817;50.80926400;5.16316200;2023-04-23T04:12:50;11.70;99.90
19363;DHT22;9817;50.80926400;5.16316200;2023-04-23T04:15:16;11.80;99.90
19363;DHT22;9817;50.80926400;5.16316200;2023-04-23T04:17:44;11.60;99.90
19363;DHT22;9817;50.80926400;5.16316200;2023-04-23T04:20:10;11.40;99.90
19363;DHT22;9817;50.80926400;5.16316200;2023-04-23T04:22:36;11.40;99.90
19363;DHT22;9817;50.80926400;5.16316200;2023-04-23T04:25:02;11.50;99.90
19363;DHT22;9817;50.80926400;5.16316200;2023-04-23T04:27:29;11.50;99.90
19363;DHT22;9817;50.80926400;5.16316200;2023-04-23T04:29:58;11.40;99.90
19363;DHT22;9817;50.80926400;5.16316200;2023-04-23T04:32:26;11.40;99.90
19363;DHT22;9817;50.80926400;5.16316200;2023-04-23T04:34:52;11.30;99.90
19363;DHT22;9817;50.80926400;5.16316200;2023-04-23T04:37:18;11.30;99.90
19363;DHT22;9817;50.80926400;5.16316200;2023-04-23T04:39:45;11.30;99.90
19363;DHT22;9817;50.80926400;5.16316200;2023-04-23T04:42:11;11.30;99.90
19363;DHT22;9817;50.80926400;5.16316200;2023-04-23T04:44:37;11.20;99.90
19363;DHT22;9817;50.80926400;5.16316200;2023-04-23T04:47:04;11.20;99.90
19363;DHT22;9817;50.80926400;5.16316200;2023-04-23T04:49:29;11.30;99.90
19363;DHT22;9817;50.80926400;5.16316200;2023-04-23T04:51:55;11.40;99.90
19363;DHT22;9817;50.80926400;5.16316200;2023-04-23T04:54:21;11.50;99.90
19363;DHT22;9817;50.80926400;5.16316200;2023-04-23T04:56:46;11.60;99.90
19363;DHT22;9817;50.80926400;5.16316200;2023-04-23T04:59:12;11.70;99.90
19363;DHT22;9817;50.80926400;5.16316200;2023-04-23T05:01:38;11.80;99.90
19363;DHT22;9817;50.80926400;5.16316200;2023-04-23T05:04:04;11.90;99.90
19363;DHT22;9817;50.80926400;5.16316200;2023-04-23T05:06:29;12.00;99.90
19363;DHT22;9817;50.80926400;5.16316200;2023-04-23T05:08:56;11.90;99.90
19363;DHT22;9817;50.80926400;5.16316200;2023-04-23T05:11:22;11.90;99.90
19363;DHT22;9817;50.80926400;5.16316200;2023-04-23T05:13:48;12.00;99.90
19363;DHT22;9817;50.80926400;5.16316200;2023-04-23T05:16:14;12.10;99.90
19363;DHT22;9817;50.80926400;5.16316200;2023-04-23T05:18:40;12.10;99.90
19363;DHT22;9817;50.80926400;5.16316200;2023-04-23T05:21:06;12.20;99.90
19363;DHT22;9817;50.80926400;5.16316200;2023-04-23T05:23:33;12.20;99.90
19363;DHT22;9817;50.80926400;5.16316200;2023-04-23T05:25:59;12.10;99.90
19363;DHT22;9817;50.80926400;5.16316200;2023-04-23T05:28:24;12.10;99.90
19363;DHT22;9817;50.80926400;5.16316200;2023-04-23T05:30:51;11.90;99.90
19363;DHT22;9817;50.80926400;5.16316200;2023-04-23T05:33:17;11.80;99.90
19363;DHT22;9817;50.80926400;5.16316200;2023-04-23T05:35:42;11.80;99.90
19363;DHT22;9817;50.80926400;5.16316200;2023-04-23T05:38:08;11.70;99.90
19363;DHT22;9817;50.80926400;5.16316200;2023-04-23T05:40:34;11.80;99.90
19363;DHT22;9817;50.80926400;5.16316200;2023-04-23T05:43:00;12.10;99.90
19363;DHT22;9817;50.80926400;5.16316200;2023-04-23T05:45:27;12.30;99.90
19363;DHT22;9817;50.80926400;5.16316200;2023-04-23T05:47:53;12.70;99.90
19363;DHT22;9817;50.80926400;5.16316200;2023-04-23T05:50:21;13.00;99.90
19363;DHT22;9817;50.80926400;5.16316200;2023-04-23T05:52:47;13.20;99.90
19363;DHT22;9817;50.80926400;5.16316200;2023-04-23T05:55:12;13.20;99.90
19363;DHT22;9817;50.80926400;5.16316200;2023-04-23T05:57:42;13.20;99.90
19363;DHT22;9817;50.80926400;5.16316200;2023-04-23T06:00:08;13.20;99.90
19363;DHT22;9817;50.80926400;5.16316200;2023-04-23T06:02:34;13.50;99.90
19363;DHT22;9817;50.80926400;5.16316200;2023-04-23T06:05:00;13.70;99.90
19363;DHT22;9817;50.80926400;5.16316200;2023-04-23T06:07:26;14.00;99.90
19363;DHT22;9817;50.80926400;5.16316200;2023-04-23T06:09:51;14.10;99.90
19363;DHT22;9817;50.80926400;5.16316200;2023-04-23T06:12:17;14.30;99.90
19363;DHT22;9817;50.80926400;5.16316200;2023-04-23T06:14:43;14.90;99.90
19363;DHT22;9817;50.80926400;5.16316200;2023-04-23T06:17:08;15.20;99.90
19363;DHT22;9817;50.80926400;5.16316200;2023-04-23T06:19:34;15.80;99.90
19363;DHT22;9817;50.80926400;5.16316200;2023-04-23T06:22:00;16.20;99.90
19363;DHT22;9817;50.80926400;5.16316200;2023-04-23T06:24:25;16.50;99.90
19363;DHT22;9817;50.80926400;5.16316200;2023-04-23T06:26:51;16.50;99.90
19363;DHT22;9817;50.80926400;5.16316200;2023-04-23T06:29:17;16.60;99.90
19363;DHT22;9817;50.80926400;5.16316200;2023-04-23T06:31:42;16.20;99.90
19363;DHT22;9817;50.80926400;5.16316200;2023-04-23T06:34:08;16.10;99.90
19363;DHT22;9817;50.80926400;5.16316200;2023-04-23T06:36:33;16.10;99.90
19363;DHT22;9817;50.80926400;5.16316200;2023-04-23T06:38:59;16.10;99.90
19363;DHT22;9817;50.80926400;5.16316200;2023-04-23T06:41:25;15.80;99.90
19363;DHT22;9817;50.80926400;5.16316200;2023-04-23T06:43:51;15.70;99.90
19363;DHT22;9817;50.80926400;5.16316200;2023-04-23T06:46:16;15.70;99.90
19363;DHT22;9817;50.80926400;5.16316200;2023-04-23T06:48:42;15.70;99.90
19363;DHT22;9817;50.80926400;5.16316200;2023-04-23T06:51:07;15.80;99.90
19363;DHT22;9817;50.80926400;5.16316200;2023-04-23T06:53:33;15.70;99.90
19363;DHT22;9817;50.80926400;5.16316200;2023-04-23T06:55:59;15.80;99.90
19363;DHT22;9817;50.80926400;5.16316200;2023-04-23T06:58:24;15.90;99.90
19363;DHT22;9817;50.80926400;5.16316200;2023-04-23T07:00:56;16.00;99.90
19363;DHT22;9817;50.80926400;5.16316200;2023-04-23T07:03:25;16.10;99.90
19363;DHT22;9817;50.80926400;5.16316200;2023-04-23T07:05:52;16.50;99.90
19363;DHT22;9817;50.80926400;5.16316200;2023-04-23T07:08:18;16.30;99.90
19363;DHT22;9817;50.80926400;5.16316200;2023-04-23T07:10:45;16.50;99.90
19363;DHT22;9817;50.80926400;5.16316200;2023-04-23T07:13:11;16.60;99.90
19363;DHT22;9817;50.80926400;5.16316200;2023-04-23T07:15:37;16.80;99.90
19363;DHT22;9817;50.80926400;5.16316200;2023-04-23T07:18:03;17.50;99.90
19363;DHT22;9817;50.80926400;5.16316200;2023-04-23T07:20:29;18.20;99.90
19363;DHT22;9817;50.80926400;5.16316200;2023-04-23T07:22:54;18.40;99.90
19363;DHT22;9817;50.80926400;5.16316200;2023-04-23T07:25:20;18.40;99.90
19363;DHT22;9817;50.80926400;5.16316200;2023-04-23T07:27:47;18.30;99.90
19363;DHT22;9817;50.80926400;5.16316200;2023-04-23T07:30:13;18.00;99.90
19363;DHT22;9817;50.80926400;5.16316200;2023-04-23T07:32:38;17.60;99.90
19363;DHT22;9817;50.80926400;5.16316200;2023-04-23T07:35:04;17.60;99.90
19363;DHT22;9817;50.80926400;5.16316200;2023-04-23T07:37:30;17.50;99.90
19363;DHT22;9817;50.80926400;5.16316200;2023-04-23T07:39:56;17.40;99.90
19363;DHT22;9817;50.80926400;5.16316200;2023-04-23T07:42:22;17.60;99.90
19363;DHT22;9817;50.80926400;5.16316200;2023-04-23T07:44:48;17.40;99.90
19363;DHT22;9817;50.80926400;5.16316200;2023-04-23T07:47:13;17.40;99.90
19363;DHT22;9817;50.80926400;5.16316200;2023-04-23T07:49:39;17.50;99.90
19363;DHT22;9817;50.80926400;5.16316200;2023-04-23T07:52:05;17.70;99.90
19363;DHT22;9817;50.80926400;5.16316200;2023-04-23T07:54:30;18.30;99.90
19363;DHT22;9817;50.80926400;5.16316200;2023-04-23T07:56:56;19.40;99.90
19363;DHT22;9817;50.80926400;5.16316200;2023-04-23T07:59:22;21.00;99.90
19363;DHT22;9817;50.80926400;5.16316200;2023-04-23T08:01:47;22.80;99.90
19363;DHT22;9817;50.80926400;5.16316200;2023-04-23T08:04:13;24.60;99.90
19363;DHT22;9817;50.80926400;5.16316200;2023-04-23T08:06:39;24.90;99.90
19363;DHT22;9817;50.80926400;5.16316200;2023-04-23T08:09:04;24.80;99.90
19363;DHT22;9817;50.80926400;5.16316200;2023-04-23T08:11:31;25.40;99.90
19363;DHT22;9817;50.80926400;5.16316200;2023-04-23T08:13:57;25.20;99.90
19363;DHT22;9817;50.80926400;5.16316200;2023-04-23T08:16:23;25.50;99.90
19363;DHT22;9817;50.80926400;5.16316200;2023-04-23T08:18:48;25.20;99.90
19363;DHT22;9817;50.80926400;5.16316200;2023-04-23T08:21:14;24.10;99.90
19363;DHT22;9817;50.80926400;5.16316200;2023-04-23T08:23:40;22.90;99.90
19363;DHT22;9817;50.80926400;5.16316200;2023-04-23T08:26:06;22.80;99.90
19363;DHT22;9817;50.80926400;5.16316200;2023-04-23T08:28:31;22.50;99.90
19363;DHT22;9817;50.80926400;5.16316200;2023-04-23T08:30:57;22.60;99.90
19363;DHT22;9817;50.80926400;5.16316200;2023-04-23T08:33:23;22.00;99.90
19363;DHT22;9817;50.80926400;5.16316200;2023-04-23T08:35:48;21.70;99.90
19363;DHT22;9817;50.80926400;5.16316200;2023-04-23T08:38:14;22.30;99.90
19363;DHT22;9817;50.80926400;5.16316200;2023-04-23T08:40:41;22.40;99.90
19363;DHT22;9817;50.80926400;5.16316200;2023-04-23T08:43:14;21.40;99.90
19363;DHT22;9817;50.80926400;5.16316200;2023-04-23T08:45:41;20.60;99.90
19363;DHT22;9817;50.80926400;5.16316200;2023-04-23T08:48:09;19.90;99.90
19363;DHT22;9817;50.80926400;5.16316200;2023-04-23T08:50:37;20.10;99.90
19363;DHT22;9817;50.80926400;5.16316200;2023-04-23T08:53:03;20.30;99.90
19363;DHT22;9817;50.80926400;5.16316200;2023-04-23T08:55:33;20.30;99.90
19363;DHT22;9817;50.80926400;5.16316200;2023-04-23T08:57:59;20.70;99.90
19363;DHT22;9817;50.80926400;5.16316200;2023-04-23T09:00:27;20.40;99.90
19363;DHT22;9817;50.80926400;5.16316200;2023-04-23T09:02:52;20.60;99.90
19363;DHT22;9817;50.80926400;5.16316200;2023-04-23T09:05:18;20.40;99.90
19363;DHT22;9817;50.80926400;5.16316200;2023-04-23T09:07:44;20.00;99.90
19363;DHT22;9817;50.80926400;5.16316200;2023-04-23T09:10:11;19.40;99.90
19363;DHT22;9817;50.80926400;5.16316200;2023-04-23T09:12:39;19.10;99.90
19363;DHT22;9817;50.80926400;5.16316200;2023-04-23T09:15:07;19.70;99.90
19363;DHT22;9817;50.80926400;5.16316200;2023-04-23T09:17:42;20.00;99.90
19363;DHT22;9817;50.80926400;5.16316200;2023-04-23T09:20:09;20.10;99.90
19363;DHT22;9817;50.80926400;5.16316200;2023-04-23T09:22:49;20.30;99.90
19363;DHT22;9817;50.80926400;5.16316200;2023-04-23T09:25:20;20.40;99.90
19363;DHT22;9817;50.80926400;5.16316200;2023-04-23T09:27:47;20.40;99.90
19363;DHT22;9817;50.80926400;5.16316200;2023-04-23T09:30:14;20.60;99.90
19363;DHT22;9817;50.80926400;5.16316200;2023-04-23T09:32:41;20.40;99.90
19363;DHT22;9817;50.80926400;5.16316200;2023-04-23T09:35:08;20.00;99.90
19363;DHT22;9817;50.80926400;5.16316200;2023-04-23T09:37:35;19.40;99.90
19363;DHT22;9817;50.80926400;5.16316200;2023-04-23T09:40:03;19.30;99.90
19363;DHT22;9817;50.80926400;5.16316200;2023-04-23T09:42:31;19.00;99.90
19363;DHT22;9817;50.80926400;5.16316200;2023-04-23T09:45:09;18.70;99.90
19363;DHT22;9817;50.80926400;5.16316200;2023-04-23T09:47:40;18.70;99.90
19363;DHT22;9817;50.80926400;5.16316200;2023-04-23T09:50:07;18.40;99.90
19363;DHT22;9817;50.80926400;5.16316200;2023-04-23T09:52:38;18.30;99.90
19363;DHT22;9817;50.80926400;5.16316200;2023-04-23T09:55:04;18.80;99.90
19363;DHT22;9817;50.80926400;5.16316200;2023-04-23T09:57:35;19.40;99.90
19363;DHT22;9817;50.80926400;5.16316200;2023-04-23T10:00:16;19.80;99.90
19363;DHT22;9817;50.80926400;5.16316200;2023-04-23T10:02:49;19.90;99.90
19363;DHT22;9817;50.80926400;5.16316200;2023-04-23T10:05:20;20.00;99.90
19363;DHT22;9817;50.80926400;5.16316200;2023-04-23T10:07:46;20.00;99.90
19363;DHT22;9817;50.80926400;5.16316200;2023-04-23T10:10:14;20.30;99.90
19363;DHT22;9817;50.80926400;5.16316200;2023-04-23T10:12:41;20.70;99.90
19363;DHT22;9817;50.80926400;5.16316200;2023-04-23T10:15:07;20.50;99.90
19363;DHT22;9817;50.80926400;5.16316200;2023-04-23T10:17:34;20.40;99.90
19363;DHT22;9817;50.80926400;5.16316200;2023-04-23T10:20:00;20.20;99.90
19363;DHT22;9817;50.80926400;5.16316200;2023-04-23T10:22:28;19.70;99.90
19363;DHT22;9817;50.80926400;5.16316200;2023-04-23T10:24:56;18.90;99.90
19363;DHT22;9817;50.80926400;5.16316200;2023-04-23T10:27:29;19.00;99.90
19363;DHT22;9817;50.80926400;5.16316200;2023-04-23T10:29:56;18.80;99.90
19363;DHT22;9817;50.80926400;5.16316200;2023-04-23T10:32:22;18.80;99.90
19363;DHT22;9817;50.80926400;5.16316200;2023-04-23T10:34:49;18.90;99.90
19363;DHT22;9817;50.80926400;5.16316200;2023-04-23T10:37:16;18.80;99.90
19363;DHT22;9817;50.80926400;5.16316200;2023-04-23T10:39:46;18.80;99.90
19363;DHT22;9817;50.80926400;5.16316200;2023-04-23T10:42:15;18.60;99.90
19363;DHT22;9817;50.80926400;5.16316200;2023-04-23T10:44:42;18.50;99.90
19363;DHT22;9817;50.80926400;5.16316200;2023-04-23T10:47:13;18.60;99.90
19363;DHT22;9817;50.80926400;5.16316200;2023-04-23T10:49:39;18.50;99.90
19363;DHT22;9817;50.80926400;5.16316200;2023-04-23T10:52:11;18.80;99.90
19363;DHT22;9817;50.80926400;5.16316200;2023-04-23T10:54:47;18.90;99.90
19363;DHT22;9817;50.80926400;5.16316200;2023-04-23T10:57:13;19.10;99.90
19363;DHT22;9817;50.80926400;5.16316200;2023-04-23T10:59:50;19.10;99.90
19363;DHT22;9817;50.80926400;5.16316200;2023-04-23T11:02:16;19.00;99.90
19363;DHT22;9817;50.80926400;5.16316200;2023-04-23T11:04:52;18.90;99.90
19363;DHT22;9817;50.80926400;5.16316200;2023-04-23T11:07:18;18.70;99.90
19363;DHT22;9817;50.80926400;5.16316200;2023-04-23T11:09:48;18.50;99.90
19363;DHT22;9817;50.80926400;5.16316200;2023-04-23T11:14:50;18.90;99.90
19363;DHT22;9817;50.80926400;5.16316200;2023-04-23T11:18:02;19.10;99.90
19363;DHT22;9817;50.80926400;5.16316200;2023-04-23T11:22:35;19.40;99.90
19363;DHT22;9817;50.80926400;5.16316200;2023-04-23T11:25:01;19.50;99.90
19363;DHT22;9817;50.80926400;5.16316200;2023-04-23T11:27:29;19.70;99.90
19363;DHT22;9817;50.80926400;5.16316200;2023-04-23T11:29:55;19.50;99.90
19363;DHT22;9817;50.80926400;5.16316200;2023-04-23T11:32:21;19.40;99.90
19363;DHT22;9817;50.80926400;5.16316200;2023-04-23T11:34:47;19.10;99.90
19363;DHT22;9817;50.80926400;5.16316200;2023-04-23T11:37:16;19.10;99.90
19363;DHT22;9817;50.80926400;5.16316200;2023-04-23T11:39:43;19.20;99.90
19363;DHT22;9817;50.80926400;5.16316200;2023-04-23T11:42:13;18.90;99.90
19363;DHT22;9817;50.80926400;5.16316200;2023-04-23T11:44:40;18.90;99.90
19363;DHT22;9817;50.80926400;5.16316200;2023-04-23T11:47:07;18.70;99.90
19363;DHT22;9817;50.80926400;5.16316200;2023-04-23T11:49:35;18.50;99.90
19363;DHT22;9817;50.80926400;5.16316200;2023-04-23T11:52:00;18.60;99.90
19363;DHT22;9817;50.80926400;5.16316200;2023-04-23T11:54:27;18.60;99.90
19363;DHT22;9817;50.80926400;5.16316200;2023-04-23T11:56:54;18.60;99.90
19363;DHT22;9817;50.80926400;5.16316200;2023-04-23T11:59:21;18.50;99.90
19363;DHT22;9817;50.80926400;5.16316200;2023-04-23T12:01:49;18.60;99.90
19363;DHT22;9817;50.80926400;5.16316200;2023-04-23T12:04:22;18.60;99.90
19363;DHT22;9817;50.80926400;5.16316200;2023-04-23T12:06:50;18.80;99.90
19363;DHT22;9817;50.80926400;5.16316200;2023-04-23T12:09:17;18.90;99.90
19363;DHT22;9817;50.80926400;5.16316200;2023-04-23T12:11:44;19.00;99.90
19363;DHT22;9817;50.80926400;5.16316200;2023-04-23T12:14:12;19.00;99.90
19363;DHT22;9817;50.80926400;5.16316200;2023-04-23T12:16:42;19.00;99.90
19363;DHT22;9817;50.80926400;5.16316200;2023-04-23T12:19:15;19.20;99.90
19363;DHT22;9817;50.80926400;5.16316200;2023-04-23T12:21:53;19.40;99.90
19363;DHT22;9817;50.80926400;5.16316200;2023-04-23T12:24:30;19.80;99.90
19363;DHT22;9817;50.80926400;5.16316200;2023-04-23T12:27:13;19.80;99.90
19363;DHT22;9817;50.80926400;5.16316200;2023-04-23T12:29:40;19.80;99.90
19363;DHT22;9817;50.80926400;5.16316200;2023-04-23T12:32:10;19.60;99.90
19363;DHT22;9817;50.80926400;5.16316200;2023-04-23T12:34:36;19.40;99.90
19363;DHT22;9817;50.80926400;5.16316200;2023-04-23T12:37:05;19.00;99.90
19363;DHT22;9817;50.80926400;5.16316200;2023-04-23T12:39:33;18.00;99.90
19363;DHT22;9817;50.80926400;5.16316200;2023-04-23T12:42:02;17.30;99.90
19363;DHT22;9817;50.80926400;5.16316200;2023-04-23T12:44:37;16.80;99.90
19363;DHT22;9817;50.80926400;5.16316200;2023-04-23T12:47:06;16.40;99.90
19363;DHT22;9817;50.80926400;5.16316200;2023-04-23T12:49:33;16.30;99.90
19363;DHT22;9817;50.80926400;5.16316200;2023-04-23T12:52:01;16.40;99.90
19363;DHT22;9817;50.80926400;5.16316200;2023-04-23T12:54:29;16.50;99.90
19363;DHT22;9817;50.80926400;5.16316200;2023-04-23T12:56:56;16.50;99.90
19363;DHT22;9817;50.80926400;5.16316200;2023-04-23T12:59:22;16.60;99.90
19363;DHT22;9817;50.80926400;5.16316200;2023-04-23T13:01:48;16.60;99.90
19363;DHT22;9817;50.80926400;5.16316200;2023-04-23T13:04:15;16.60;99.90
19363;DHT22;9817;50.80926400;5.16316200;2023-04-23T13:06:41;16.50;99.90
19363;DHT22;9817;50.80926400;5.16316200;2023-04-23T13:09:07;16.50;99.90
19363;DHT22;9817;50.80926400;5.16316200;2023-04-23T13:11:40;16.40;99.90
19363;DHT22;9817;50.80926400;5.16316200;2023-04-23T13:14:06;16.40;99.90
19363;DHT22;9817;50.80926400;5.16316200;2023-04-23T13:16:32;16.10;99.90
19363;DHT22;9817;50.80926400;5.16316200;2023-04-23T13:18:59;15.90;99.90
19363;DHT22;9817;50.80926400;5.16316200;2023-04-23T13:21:25;15.90;99.90
19363;DHT22;9817;50.80926400;5.16316200;2023-04-23T13:23:51;15.90;99.90
19363;DHT22;9817;50.80926400;5.16316200;2023-04-23T13:26:16;15.90;99.90
19363;DHT22;9817;50.80926400;5.16316200;2023-04-23T13:28:42;15.80;99.90
19363;DHT22;9817;50.80926400;5.16316200;2023-04-23T13:31:08;15.80;99.90
19363;DHT22;9817;50.80926400;5.16316200;2023-04-23T13:33:36;15.80;99.90
19363;DHT22;9817;50.80926400;5.16316200;2023-04-23T13:36:02;15.90;99.90
19363;DHT22;9817;50.80926400;5.16316200;2023-04-23T13:38:29;16.10;99.90